sensor_id;sensor_type;location;lat;lon;timestamp;P1;P2;P0
65556;PMS3003;52200;53.490;14.376;2023-06-10T00:02:10;9.50;5.75;3.00
65556;PMS3003;52200;53.490;14.376;2023-06-10T00:04:35;9.75;5.25;2.75
65556;PMS3003;52200;53.490;14.376;2023-06-10T00:07:04;11.80;6.40;3.40
65556;PMS3003;52200;53.490;14.376;2023-06-10T00:09:34;10.60;5.80;2.00
65556;PMS3003;52200;53.490;14.376;2023-06-10T00:12:01;11.00;7.40;3.00
65556;PMS3003;52200;53.490;14.376;2023-06-10T00:14:27;8.60;4.00;3.00
65556;PMS3003;52200;53.490;14.376;2023-06-10T00:16:52;13.25;7.25;3.00
65556;PMS3003;52200;53.490;14.376;2023-06-10T00:19:18;10.50;5.00;2.75
65556;PMS3003;52200;53.490;14.376;2023-06-10T00:21:43;10.25;6.75;3.50
65556;PMS3003;52200;53.490;14.376;2023-06-10T00:24:10;11.00;6.75;3.00
65556;PMS3003;52200;53.490;14.376;2023-06-10T00:26:37;8.80;5.80;3.00
65556;PMS3003;52200;53.490;14.376;2023-06-10T00:29:03;10.60;5.00;3.00
65556;PMS3003;52200;53.490;14.376;2023-06-10T00:31:28;13.25;7.00;3.50
65556;PMS3003;52200;53.490;14.376;2023-06-10T00:33:54;10.75;6.75;3.00
65556;PMS3003;52200;53.490;14.376;2023-06-10T00:36:19;11.50;5.75;1.75
65556;PMS3003;52200;53.490;14.376;2023-06-10T00:38:44;10.50;5.50;2.25
65556;PMS3003;52200;53.490;14.376;2023-06-10T00:41:10;10.50;5.50;3.00
65556;PMS3003;52200;53.490;14.376;2023-06-10T00:43:35;10.75;6.00;3.50
65556;PMS3003;52200;53.490;14.376;2023-06-10T00:46:00;11.75;7.00;3.00
65556;PMS3003;52200;53.490;14.376;2023-06-10T00:48:26;13.75;6.00;3.00
65556;PMS3003;52200;53.490;14.376;2023-06-10T00:50:52;8.00;4.60;2.20
65556;PMS3003;52200;53.490;14.376;2023-06-10T00:53:18;10.25;6.00;2.00
65556;PMS3003;52200;53.490;14.376;2023-06-10T00:55:44;8.25;4.25;2.00
65556;PMS3003;52200;53.490;14.376;2023-06-10T00:58:09;10.25;5.25;2.75
65556;PMS3003;52200;53.490;14.376;2023-06-10T01:00:36;9.60;5.00;2.40
65556;PMS3003;52200;53.490;14.376;2023-06-10T01:03:01;16.75;5.25;2.00
65556;PMS3003;52200;53.490;14.376;2023-06-10T01:05:27;10.40;6.80;3.00
65556;PMS3003;52200;53.490;14.376;2023-06-10T01:13:24;8.80;5.60;2.40
65556;PMS3003;52200;53.490;14.376;2023-06-10T01:15:54;8.60;4.40;2.40
65556;PMS3003;52200;53.490;14.376;2023-06-10T01:18:21;8.40;4.20;2.00
65556;PMS3003;52200;53.490;14.376;2023-06-10T01:20:47;8.80;5.00;2.00
65556;PMS3003;52200;53.490;14.376;2023-06-10T01:23:13;9.40;5.60;2.00
65556;PMS3003;52200;53.490;14.376;2023-06-10T01:25:49;11.00;4.40;2.00
65556;PMS3003;52200;53.490;14.376;2023-06-10T01:28:31;12.60;6.80;2.20
65556;PMS3003;52200;53.490;14.376;2023-06-10T01:33:58;11.00;6.60;2.60
65556;PMS3003;52200;53.490;14.376;2023-06-10T01:36:25;13.80;6.00;2.40
65556;PMS3003;52200;53.490;14.376;2023-06-10T01:38:52;9.40;4.40;3.20
65556;PMS3003;52200;53.490;14.376;2023-06-10T01:41:18;10.00;4.20;2.00
65556;PMS3003;52200;53.490;14.376;2023-06-10T01:43:46;10.80;5.80;2.60
65556;PMS3003;52200;53.490;14.376;2023-06-10T01:46:12;10.20;5.80;2.00
65556;PMS3003;52200;53.490;14.376;2023-06-10T01:48:38;9.80;4.40;2.00
65556;PMS3003;52200;53.490;14.376;2023-06-10T01:51:04;11.00;7.00;2.00
65556;PMS3003;52200;53.490;14.376;2023-06-10T01:53:30;8.00;3.40;2.00
65556;PMS3003;52200;53.490;14.376;2023-06-10T01:55:56;10.00;5.00;3.00
65556;PMS3003;52200;53.490;14.376;2023-06-10T01:58:21;8.25;4.75;2.50
65556;PMS3003;52200;53.490;14.376;2023-06-10T02:00:46;8.00;4.00;1.75
65556;PMS3003;52200;53.490;14.376;2023-06-10T02:03:12;9.00;4.75;2.00
65556;PMS3003;52200;53.490;14.376;2023-06-10T02:05:37;11.50;6.00;3.25
65556;PMS3003;52200;53.490;14.376;2023-06-10T02:08:03;11.75;5.75;2.00
65556;PMS3003;52200;53.490;14.376;2023-06-10T02:10:28;11.50;6.00;2.25
65556;PMS3003;52200;53.490;14.376;2023-06-10T02:12:54;13.25;5.50;2.00
65556;PMS3003;52200;53.490;14.376;2023-06-10T02:15:20;9.00;5.60;2.20
65556;PMS3003;52200;53.490;14.376;2023-06-10T02:17:45;10.25;4.75;1.00
65556;PMS3003;52200;53.490;14.376;2023-06-10T02:20:10;12.50;4.25;2.50
65556;PMS3003;52200;53.490;14.376;2023-06-10T02:22:37;7.40;4.00;2.00
65556;PMS3003;52200;53.490;14.376;2023-06-10T02:25:03;12.20;5.80;2.00
65556;PMS3003;52200;53.490;14.376;2023-06-10T02:27:29;9.80;5.80;2.40
65556;PMS3003;52200;53.490;14.376;2023-06-10T02:29:55;9.00;5.60;2.80
65556;PMS3003;52200;53.490;14.376;2023-06-10T02:32:21;7.80;3.40;1.60
65556;PMS3003;52200;53.490;14.376;2023-06-10T02:34:47;8.00;4.25;2.00
65556;PMS3003;52200;53.490;14.376;2023-06-10T02:37:13;13.20;3.60;2.00
65556;PMS3003;52200;53.490;14.376;2023-06-10T02:39:39;8.60;5.40;3.00
65556;PMS3003;52200;53.490;14.376;2023-06-10T02:42:05;10.50;6.00;2.00
65556;PMS3003;52200;53.490;14.376;2023-06-10T02:44:31;9.60;5.00;2.20
65556;PMS3003;52200;53.490;14.376;2023-06-10T02:46:56;13.00;6.75;2.50
65556;PMS3003;52200;53.490;14.376;2023-06-10T02:49:22;9.00;5.00;2.00
65556;PMS3003;52200;53.490;14.376;2023-06-10T02:51:47;9.25;4.50;2.25
65556;PMS3003;52200;53.490;14.376;2023-06-10T02:54:13;8.75;3.00;2.00
65556;PMS3003;52200;53.490;14.376;2023-06-10T02:56:38;8.25;4.75;2.00
65556;PMS3003;52200;53.490;14.376;2023-06-10T02:59:06;11.00;5.00;2.00
65556;PMS3003;52200;53.490;14.376;2023-06-10T03:01:33;10.00;5.00;3.00
65556;PMS3003;52200;53.490;14.376;2023-06-10T03:04:00;8.80;5.00;2.00
65556;PMS3003;52200;53.490;14.376;2023-06-10T03:06:25;11.50;5.75;3.00
65556;PMS3003;52200;53.490;14.376;2023-06-10T03:08:51;8.60;4.20;3.00
65556;PMS3003;52200;53.490;14.376;2023-06-10T03:11:16;12.50;5.25;2.00
65556;PMS3003;52200;53.490;14.376;2023-06-10T03:13:42;8.00;4.00;2.50
65556;PMS3003;52200;53.490;14.376;2023-06-10T03:16:07;9.00;4.75;3.00
65556;PMS3003;52200;53.490;14.376;2023-06-10T03:18:32;11.00;6.00;1.50
65556;PMS3003;52200;53.490;14.376;2023-06-10T03:20:58;10.00;4.00;2.00
65556;PMS3003;52200;53.490;14.376;2023-06-10T03:23:23;9.00;5.00;2.00
65556;PMS3003;52200;53.490;14.376;2023-06-10T03:25:49;9.50;4.75;3.00
65556;PMS3003;52200;53.490;14.376;2023-06-10T03:28:14;9.00;4.00;1.50
65556;PMS3003;52200;53.490;14.376;2023-06-10T03:30:40;14.00;5.25;2.50
65556;PMS3003;52200;53.490;14.376;2023-06-10T03:33:05;8.00;4.00;2.00
65556;PMS3003;52200;53.490;14.376;2023-06-10T03:35:30;10.00;5.50;2.50
65556;PMS3003;52200;53.490;14.376;2023-06-10T03:37:57;11.00;4.00;1.80
65556;PMS3003;52200;53.490;14.376;2023-06-10T03:40:23;13.75;6.25;2.00
65556;PMS3003;52200;53.490;14.376;2023-06-10T03:42:48;9.50;5.50;3.00
65556;PMS3003;52200;53.490;14.376;2023-06-10T03:45:13;8.25;4.25;2.25
65556;PMS3003;52200;53.490;14.376;2023-06-10T03:47:39;9.75;3.75;2.00
65556;PMS3003;52200;53.490;14.376;2023-06-10T03:50:05;9.00;5.00;2.80
65556;PMS3003;52200;53.490;14.376;2023-06-10T03:52:33;10.80;5.00;2.40
65556;PMS3003;52200;53.490;14.376;2023-06-10T03:54:58;8.75;4.75;1.75
65556;PMS3003;52200;53.490;14.376;2023-06-10T03:57:24;7.00;4.00;2.00
65556;PMS3003;52200;53.490;14.376;2023-06-10T03:59:49;7.75;4.25;1.75
65556;PMS3003;52200;53.490;14.376;2023-06-10T04:02:15;11.50;5.75;2.00
65556;PMS3003;52200;53.490;14.376;2023-06-10T04:04:41;7.00;3.00;1.00
65556;PMS3003;52200;53.490;14.376;2023-06-10T04:07:06;8.50;3.50;1.25
65556;PMS3003;52200;53.490;14.376;2023-06-10T04:09:33;7.00;4.00;2.00
65556;PMS3003;52200;53.490;14.376;2023-06-10T04:11:58;9.00;4.00;2.00
65556;PMS3003;52200;53.490;14.376;2023-06-10T04:14:24;9.50;4.50;2.00
65556;PMS3003;52200;53.490;14.376;2023-06-10T04:16:49;7.00;4.00;1.50
65556;PMS3003;52200;53.490;14.376;2023-06-10T04:19:15;8.80;4.00;2.00
65556;PMS3003;52200;53.490;14.376;2023-06-10T04:21:41;8.80;4.40;2.40
65556;PMS3003;52200;53.490;14.376;2023-06-10T04:24:07;9.00;4.50;2.00
65556;PMS3003;52200;53.490;14.376;2023-06-10T04:26:34;8.75;5.00;2.50
65556;PMS3003;52200;53.490;14.376;2023-06-10T04:29:00;8.80;4.60;1.00
65556;PMS3003;52200;53.490;14.376;2023-06-10T04:31:25;8.25;4.00;2.00
65556;PMS3003;52200;53.490;14.376;2023-06-10T04:33:51;7.00;4.00;2.50
65556;PMS3003;52200;53.490;14.376;2023-06-10T04:36:16;9.75;5.25;2.50
65556;PMS3003;52200;53.490;14.376;2023-06-10T04:38:41;13.00;7.00;3.00
65556;PMS3003;52200;53.490;14.376;2023-06-10T04:41:07;7.25;4.25;1.75
65556;PMS3003;52200;53.490;14.376;2023-06-10T04:43:32;11.00;4.75;2.00
65556;PMS3003;52200;53.490;14.376;2023-06-10T04:45:58;8.75;3.75;2.00
65556;PMS3003;52200;53.490;14.376;2023-06-10T04:48:23;11.75;5.50;2.25
65556;PMS3003;52200;53.490;14.376;2023-06-10T04:50:49;8.25;4.25;2.25
65556;PMS3003;52200;53.490;14.376;2023-06-10T04:53:15;8.80;4.80;2.00
65556;PMS3003;52200;53.490;14.376;2023-06-10T04:55:41;10.40;4.00;2.00
65556;PMS3003;52200;53.490;14.376;2023-06-10T04:58:07;9.25;2.75;2.00
65556;PMS3003;52200;53.490;14.376;2023-06-10T05:00:32;9.25;4.00;2.00
65556;PMS3003;52200;53.490;14.376;2023-06-10T05:02:57;11.25;5.00;2.00
65556;PMS3003;52200;53.490;14.376;2023-06-10T05:05:23;8.00;3.75;2.00
65556;PMS3003;52200;53.490;14.376;2023-06-10T05:07:48;9.00;4.00;3.00
65556;PMS3003;52200;53.490;14.376;2023-06-10T05:10:13;11.00;6.75;3.00
65556;PMS3003;52200;53.490;14.376;2023-06-10T05:12:40;9.50;5.00;2.50
65556;PMS3003;52200;53.490;14.376;2023-06-10T05:15:06;10.40;6.60;2.00
65556;PMS3003;52200;53.490;14.376;2023-06-10T05:17:32;7.60;3.80;2.00
65556;PMS3003;52200;53.490;14.376;2023-06-10T05:19:58;10.25;5.00;3.00
65556;PMS3003;52200;53.490;14.376;2023-06-10T05:22:23;8.50;4.75;2.00
65556;PMS3003;52200;53.490;14.376;2023-06-10T05:24:49;9.25;3.50;2.00
65556;PMS3003;52200;53.490;14.376;2023-06-10T05:27:16;9.20;4.60;2.20
65556;PMS3003;52200;53.490;14.376;2023-06-10T05:29:41;8.75;5.00;2.00
65556;PMS3003;52200;53.490;14.376;2023-06-10T05:32:07;10.50;4.00;2.00
65556;PMS3003;52200;53.490;14.376;2023-06-10T05:34:33;7.00;4.00;2.00
65556;PMS3003;52200;53.490;14.376;2023-06-10T05:36:58;9.75;4.75;2.25
65556;PMS3003;52200;53.490;14.376;2023-06-10T05:39:24;8.75;4.50;2.25
65556;PMS3003;52200;53.490;14.376;2023-06-10T05:41:49;10.75;4.75;2.75
65556;PMS3003;52200;53.490;14.376;2023-06-10T05:44:14;10.75;6.00;3.00
65556;PMS3003;52200;53.490;14.376;2023-06-10T05:46:40;10.50;6.00;3.00
65556;PMS3003;52200;53.490;14.376;2023-06-10T05:49:05;10.00;6.00;3.00
65556;PMS3003;52200;53.490;14.376;2023-06-10T05:51:31;10.00;6.50;3.75
65556;PMS3003;52200;53.490;14.376;2023-06-10T05:53:56;10.00;6.00;2.75
65556;PMS3003;52200;53.490;14.376;2023-06-10T05:56:21;12.25;5.50;3.50
65556;PMS3003;52200;53.490;14.376;2023-06-10T05:58:47;12.00;7.00;4.00
65556;PMS3003;52200;53.490;14.376;2023-06-10T06:01:14;12.40;7.40;2.20
65556;PMS3003;52200;53.490;14.376;2023-06-10T06:03:39;13.25;4.75;2.00
65556;PMS3003;52200;53.490;14.376;2023-06-10T06:06:05;9.00;5.00;3.00
65556;PMS3003;52200;53.490;14.376;2023-06-10T06:08:30;9.25;5.50;2.25
65556;PMS3003;52200;53.490;14.376;2023-06-10T06:10:56;11.25;8.25;3.75
65556;PMS3003;52200;53.490;14.376;2023-06-10T06:13:21;11.00;6.25;3.00
65556;PMS3003;52200;53.490;14.376;2023-06-10T06:15:47;9.00;5.00;2.00
65556;PMS3003;52200;53.490;14.376;2023-06-10T06:18:12;11.00;6.00;3.00
65556;PMS3003;52200;53.490;14.376;2023-06-10T06:20:37;9.25;6.00;3.00
65556;PMS3003;52200;53.490;14.376;2023-06-10T06:23:03;10.25;6.75;3.00
65556;PMS3003;52200;53.490;14.376;2023-06-10T06:25:28;14.00;8.00;3.00
65556;PMS3003;52200;53.490;14.376;2023-06-10T06:27:53;11.00;7.50;4.00
65556;PMS3003;52200;53.490;14.376;2023-06-10T06:30:19;11.00;6.75;2.75
65556;PMS3003;52200;53.490;14.376;2023-06-10T06:32:44;10.00;6.50;3.00
65556;PMS3003;52200;53.490;14.376;2023-06-10T06:35:10;12.50;9.00;3.00
65556;PMS3003;52200;53.490;14.376;2023-06-10T06:37:35;12.50;8.50;3.75
65556;PMS3003;52200;53.490;14.376;2023-06-10T06:40:01;14.75;8.25;3.75
65556;PMS3003;52200;53.490;14.376;2023-06-10T06:42:26;11.00;6.00;3.00
65556;PMS3003;52200;53.490;14.376;2023-06-10T06:44:52;11.00;7.00;4.50
65556;PMS3003;52200;53.490;14.376;2023-06-10T06:47:17;9.00;6.00;4.00
65556;PMS3003;52200;53.490;14.376;2023-06-10T06:49:45;13.40;6.60;3.60
65556;PMS3003;52200;53.490;14.376;2023-06-10T06:52:13;14.00;8.40;4.60
65556;PMS3003;52200;53.490;14.376;2023-06-10T06:54:40;12.60;8.00;4.80
65556;PMS3003;52200;53.490;14.376;2023-06-10T06:57:05;11.50;8.25;4.25
65556;PMS3003;52200;53.490;14.376;2023-06-10T06:59:32;11.60;7.20;4.00
65556;PMS3003;52200;53.490;14.376;2023-06-10T07:01:57;13.00;6.25;3.00
65556;PMS3003;52200;53.490;14.376;2023-06-10T07:04:23;11.00;7.00;4.00
65556;PMS3003;52200;53.490;14.376;2023-06-10T07:06:48;12.50;8.25;5.00
65556;PMS3003;52200;53.490;14.376;2023-06-10T07:09:14;11.00;7.75;4.75
65556;PMS3003;52200;53.490;14.376;2023-06-10T07:11:39;10.50;7.25;5.25
65556;PMS3003;52200;53.490;14.376;2023-06-10T07:14:06;12.00;9.00;5.25
65556;PMS3003;52200;53.490;14.376;2023-06-10T07:16:32;13.80;9.40;5.00
65556;PMS3003;52200;53.490;14.376;2023-06-10T07:18:57;12.50;8.25;5.50
65556;PMS3003;52200;53.490;14.376;2023-06-10T07:21:23;12.25;7.75;5.00
65556;PMS3003;52200;53.490;14.376;2023-06-10T07:23:48;14.50;9.00;5.00
65556;PMS3003;52200;53.490;14.376;2023-06-10T07:26:17;15.20;10.00;6.00
65556;PMS3003;52200;53.490;14.376;2023-06-10T07:28:42;15.00;9.00;5.50
65556;PMS3003;52200;53.490;14.376;2023-06-10T07:31:08;12.50;9.25;5.25
65556;PMS3003;52200;53.490;14.376;2023-06-10T07:33:33;16.75;11.00;6.50
65556;PMS3003;52200;53.490;14.376;2023-06-10T07:35:59;15.50;11.75;6.50
65556;PMS3003;52200;53.490;14.376;2023-06-10T07:38:25;15.00;11.25;7.00
65556;PMS3003;52200;53.490;14.376;2023-06-10T07:40:51;12.00;9.80;5.00
65556;PMS3003;52200;53.490;14.376;2023-06-10T07:43:16;13.50;9.50;6.50
65556;PMS3003;52200;53.490;14.376;2023-06-10T07:45:42;13.50;10.25;6.75
65556;PMS3003;52200;53.490;14.376;2023-06-10T07:48:08;15.40;12.00;6.40
65556;PMS3003;52200;53.490;14.376;2023-06-10T07:50:34;14.25;10.50;6.00
65556;PMS3003;52200;53.490;14.376;2023-06-10T07:52:59;14.00;12.00;7.00
65556;PMS3003;52200;53.490;14.376;2023-06-10T07:55:25;12.75;10.75;6.25
65556;PMS3003;52200;53.490;14.376;2023-06-10T07:57:53;14.40;11.40;6.60
65556;PMS3003;52200;53.490;14.376;2023-06-10T08:00:19;14.75;9.50;5.00
65556;PMS3003;52200;53.490;14.376;2023-06-10T08:02:45;14.40;10.00;6.00
65556;PMS3003;52200;53.490;14.376;2023-06-10T08:05:10;13.25;11.00;6.00
65556;PMS3003;52200;53.490;14.376;2023-06-10T08:07:36;15.50;10.25;6.00
65556;PMS3003;52200;53.490;14.376;2023-06-10T08:10:01;16.25;14.00;7.00
65556;PMS3003;52200;53.490;14.376;2023-06-10T08:12:27;13.40;12.20;5.60
65556;PMS3003;52200;53.490;14.376;2023-06-10T08:14:53;16.75;14.00;6.25
65556;PMS3003;52200;53.490;14.376;2023-06-10T08:17:19;14.80;13.40;6.80
65556;PMS3003;52200;53.490;14.376;2023-06-10T08:19:45;17.50;15.00;8.00
65556;PMS3003;52200;53.490;14.376;2023-06-10T08:22:10;13.25;13.00;7.00
65556;PMS3003;52200;53.490;14.376;2023-06-10T08:24:36;15.00;14.00;7.75
65556;PMS3003;52200;53.490;14.376;2023-06-10T08:27:01;14.75;14.50;8.00
65556;PMS3003;52200;53.490;14.376;2023-06-10T08:29:26;16.00;15.50;7.00
65556;PMS3003;52200;53.490;14.376;2023-06-10T08:31:52;16.75;15.75;8.00
65556;PMS3003;52200;53.490;14.376;2023-06-10T08:34:17;14.00;13.25;7.00
65556;PMS3003;52200;53.490;14.376;2023-06-10T08:36:43;14.50;14.00;7.00
65556;PMS3003;52200;53.490;14.376;2023-06-10T08:39:09;15.00;14.40;7.20
65556;PMS3003;52200;53.490;14.376;2023-06-10T08:41:35;13.75;13.75;8.00
65556;PMS3003;52200;53.490;14.376;2023-06-10T08:44:12;15.00;15.00;7.80
65556;PMS3003;52200;53.490;14.376;2023-06-10T08:46:45;13.60;13.40;7.20
65556;PMS3003;52200;53.490;14.376;2023-06-10T08:49:11;12.60;12.60;7.00
65556;PMS3003;52200;53.490;14.376;2023-06-10T08:51:42;18.00;16.80;9.00
65556;PMS3003;52200;53.490;14.376;2023-06-10T08:54:11;14.25;14.25;7.50
65556;PMS3003;52200;53.490;14.376;2023-06-10T08:56:43;15.60;15.20;8.40
65556;PMS3003;52200;53.490;14.376;2023-06-10T08:59:13;15.20;15.00;8.80
65556;PMS3003;52200;53.490;14.376;2023-06-10T09:01:41;14.80;13.20;7.00
65556;PMS3003;52200;53.490;14.376;2023-06-10T09:04:07;13.60;13.40;7.40
65556;PMS3003;52200;53.490;14.376;2023-06-10T09:06:32;16.00;14.25;7.75
65556;PMS3003;52200;53.490;14.376;2023-06-10T09:08:59;15.00;14.20;9.00
65556;PMS3003;52200;53.490;14.376;2023-06-10T09:11:24;16.25;15.50;8.25
65556;PMS3003;52200;53.490;14.376;2023-06-10T09:13:50;13.80;13.80;8.00
65556;PMS3003;52200;53.490;14.376;2023-06-10T09:16:15;18.00;17.00;9.50
65556;PMS3003;52200;53.490;14.376;2023-06-10T09:18:41;15.00;14.40;7.40
65556;PMS3003;52200;53.490;14.376;2023-06-10T09:21:07;13.80;13.40;7.40
65556;PMS3003;52200;53.490;14.376;2023-06-10T09:23:33;15.00;13.75;7.50
65556;PMS3003;52200;53.490;14.376;2023-06-10T09:25:59;14.60;13.80;7.40
65556;PMS3003;52200;53.490;14.376;2023-06-10T09:28:24;13.00;11.50;6.25
65556;PMS3003;52200;53.490;14.376;2023-06-10T09:30:55;12.60;11.60;6.20
65556;PMS3003;52200;53.490;14.376;2023-06-10T09:33:27;14.00;13.80;7.20
65556;PMS3003;52200;53.490;14.376;2023-06-10T09:35:53;12.50;12.50;6.50
65556;PMS3003;52200;53.490;14.376;2023-06-10T09:38:21;13.00;13.00;7.00
65556;PMS3003;52200;53.490;14.376;2023-06-10T09:40:50;13.80;13.80;7.60
65556;PMS3003;52200;53.490;14.376;2023-06-10T09:43:20;14.60;14.00;7.40
65556;PMS3003;52200;53.490;14.376;2023-06-10T09:45:49;14.60;14.00;7.60
65556;PMS3003;52200;53.490;14.376;2023-06-10T09:48:18;13.00;13.00;6.40
65556;PMS3003;52200;53.490;14.376;2023-06-10T09:50:43;13.00;12.00;6.25
65556;PMS3003;52200;53.490;14.376;2023-06-10T09:53:09;13.40;12.00;6.00
65556;PMS3003;52200;53.490;14.376;2023-06-10T09:55:37;13.50;13.00;6.75
65556;PMS3003;52200;53.490;14.376;2023-06-10T09:58:03;13.40;12.80;7.00
65556;PMS3003;52200;53.490;14.376;2023-06-10T10:00:31;14.00;13.25;7.00
65556;PMS3003;52200;53.490;14.376;2023-06-10T10:02:58;13.20;13.20;8.00
65556;PMS3003;52200;53.490;14.376;2023-06-10T10:05:23;14.50;13.75;7.00
65556;PMS3003;52200;53.490;14.376;2023-06-10T10:07:49;12.00;11.00;5.25
65556;PMS3003;52200;53.490;14.376;2023-06-10T10:10:15;12.00;11.75;6.00
65556;PMS3003;52200;53.490;14.376;2023-06-10T10:12:43;12.20;12.20;6.00
65556;PMS3003;52200;53.490;14.376;2023-06-10T10:15:12;11.20;10.80;6.40
65556;PMS3003;52200;53.490;14.376;2023-06-10T10:17:44;10.60;10.60;5.00
65556;PMS3003;52200;53.490;14.376;2023-06-10T10:20:14;10.60;10.60;5.80
65556;PMS3003;52200;53.490;14.376;2023-06-10T10:22:45;11.40;11.40;6.00
65556;PMS3003;52200;53.490;14.376;2023-06-10T10:25:16;12.40;12.00;5.40
65556;PMS3003;52200;53.490;14.376;2023-06-10T10:27:58;11.00;11.00;6.00
65556;PMS3003;52200;53.490;14.376;2023-06-10T10:30:31;10.20;10.20;5.00
65556;PMS3003;52200;53.490;14.376;2023-06-10T10:33:05;11.40;11.00;6.20
65556;PMS3003;52200;53.490;14.376;2023-06-10T10:35:34;12.60;12.00;6.20
65556;PMS3003;52200;53.490;14.376;2023-06-10T10:38:02;10.60;9.80;5.80
65556;PMS3003;52200;53.490;14.376;2023-06-10T10:40:28;12.00;12.00;7.75
65556;PMS3003;52200;53.490;14.376;2023-06-10T10:42:55;12.00;11.00;5.80
65556;PMS3003;52200;53.490;14.376;2023-06-10T10:45:22;12.80;12.20;7.80
65556;PMS3003;52200;53.490;14.376;2023-06-10T10:47:51;12.40;11.00;6.00
65556;PMS3003;52200;53.490;14.376;2023-06-10T10:50:19;10.40;10.40;6.20
65556;PMS3003;52200;53.490;14.376;2023-06-10T10:53:01;12.60;12.60;7.80
65556;PMS3003;52200;53.490;14.376;2023-06-10T10:55:28;13.80;13.00;7.00
65556;PMS3003;52200;53.490;14.376;2023-06-10T10:57:54;11.75;11.75;6.25
65556;PMS3003;52200;53.490;14.376;2023-06-10T11:00:48;13.00;12.80;7.00
65556;PMS3003;52200;53.490;14.376;2023-06-10T11:03:15;12.60;12.60;6.20
65556;PMS3003;52200;53.490;14.376;2023-06-10T11:05:44;12.60;11.00;5.40
65556;PMS3003;52200;53.490;14.376;2023-06-10T11:08:59;10.20;10.20;5.00
65556;PMS3003;52200;53.490;14.376;2023-06-10T11:11:00;9.80;9.60;4.60
65556;PMS3003;52200;53.490;14.376;2023-06-10T11:13:58;12.00;11.60;5.80
65556;PMS3003;52200;53.490;14.376;2023-06-10T11:16:38;11.00;10.00;6.00
65556;PMS3003;52200;53.490;14.376;2023-06-10T11:19:07;13.40;12.80;7.00
65556;PMS3003;52200;53.490;14.376;2023-06-10T11:24:25;12.40;12.40;7.00
65556;PMS3003;52200;53.490;14.376;2023-06-10T11:26:51;13.40;12.60;6.40
65556;PMS3003;52200;53.490;14.376;2023-06-10T11:29:16;10.00;10.00;5.75
65556;PMS3003;52200;53.490;14.376;2023-06-10T11:31:46;13.00;11.25;6.00
65556;PMS3003;52200;53.490;14.376;2023-06-10T11:34:15;12.20;11.80;5.80
65556;PMS3003;52200;53.490;14.376;2023-06-10T11:36:48;12.60;12.00;6.00
65556;PMS3003;52200;53.490;14.376;2023-06-10T11:39:14;13.40;13.00;7.00
65556;PMS3003;52200;53.490;14.376;2023-06-10T11:41:39;11.00;10.75;6.00
65556;PMS3003;52200;53.490;14.376;2023-06-10T11:44:09;15.75;13.00;5.50
65556;PMS3003;52200;53.490;14.376;2023-06-10T11:46:36;12.40;11.40;6.00
65556;PMS3003;52200;53.490;14.376;2023-06-10T11:49:01;13.00;12.75;6.00
65556;PMS3003;52200;53.490;14.376;2023-06-10T11:51:28;11.40;11.40;7.00
65556;PMS3003;52200;53.490;14.376;2023-06-10T11:53:57;13.20;11.40;5.20
65556;PMS3003;52200;53.490;14.376;2023-06-10T11:56:23;12.25;11.75;5.75
65556;PMS3003;52200;53.490;14.376;2023-06-10T11:58:54;11.20;11.20;6.60
65556;PMS3003;52200;53.490;14.376;2023-06-10T12:01:21;10.20;10.20;6.00
65556;PMS3003;52200;53.490;14.376;2023-06-10T12:03:47;11.40;10.80;5.20
65556;PMS3003;52200;53.490;14.376;2023-06-10T12:06:13;12.75;12.75;6.50
65556;PMS3003;52200;53.490;14.376;2023-06-10T12:08:42;12.00;11.75;6.25
65556;PMS3003;52200;53.490;14.376;2023-06-10T12:11:08;13.00;12.60;6.00
65556;PMS3003;52200;53.490;14.376;2023-06-10T12:13:34;12.25;12.00;5.75
65556;PMS3003;52200;53.490;14.376;2023-06-10T12:16:06;10.75;10.75;5.75
65556;PMS3003;52200;53.490;14.376;2023-06-10T12:18:35;11.20;11.20;6.00
65556;PMS3003;52200;53.490;14.376;2023-06-10T12:21:00;11.25;11.00;6.00
65556;PMS3003;52200;53.490;14.376;2023-06-10T12:23:26;12.00;12.00;6.00
65556;PMS3003;52200;53.490;14.376;2023-06-10T12:25:52;12.75;11.00;5.00
65556;PMS3003;52200;53.490;14.376;2023-06-10T12:28:21;12.00;11.00;5.00
65556;PMS3003;52200;53.490;14.376;2023-06-10T12:30:48;11.00;11.00;5.40
65556;PMS3003;52200;53.490;14.376;2023-06-10T12:33:17;10.50;10.00;5.75
65556;PMS3003;52200;53.490;14.376;2023-06-10T12:35:49;11.00;10.80;5.60
65556;PMS3003;52200;53.490;14.376;2023-06-10T12:38:25;12.20;12.00;6.20
65556;PMS3003;52200;53.490;14.376;2023-06-10T12:40:54;12.60;12.60;6.40
65556;PMS3003;52200;53.490;14.376;2023-06-10T12:43:25;11.80;10.40;5.00
65556;PMS3003;52200;53.490;14.376;2023-06-10T12:45:51;11.50;11.50;6.00
65556;PMS3003;52200;53.490;14.376;2023-06-10T12:48:18;11.20;11.20;5.00
65556;PMS3003;52200;53.490;14.376;2023-06-10T12:50:49;11.20;11.20;6.00
65556;PMS3003;52200;53.490;14.376;2023-06-10T12:53:19;10.80;10.00;6.00
65556;PMS3003;52200;53.490;14.376;2023-06-10T12:55:46;11.40;11.40;6.20
65556;PMS3003;52200;53.490;14.376;2023-06-10T12:58:12;11.80;11.80;6.20
65556;PMS3003;52200;53.490;14.376;2023-06-10T13:00:38;12.60;12.60;6.00
65556;PMS3003;52200;53.490;14.376;2023-06-10T13:03:04;9.80;9.60;5.60
65556;PMS3003;52200;53.490;14.376;2023-06-10T13:05:33;11.40;11.00;6.00
65556;PMS3003;52200;53.490;14.376;2023-06-10T13:07:59;12.20;11.80;6.00
65556;PMS3003;52200;53.490;14.376;2023-06-10T13:10:24;11.50;11.50;7.00
65556;PMS3003;52200;53.490;14.376;2023-06-10T13:12:51;10.00;10.00;5.00
65556;PMS3003;52200;53.490;14.376;2023-06-10T13:15:17;11.20;10.80;6.00
65556;PMS3003;52200;53.490;14.376;2023-06-10T13:17:43;11.50;11.25;6.00
65556;PMS3003;52200;53.490;14.376;2023-06-10T13:20:10;13.60;13.00;5.60
65556;PMS3003;52200;53.490;14.376;2023-06-10T13:22:36;13.00;12.25;5.75
65556;PMS3003;52200;53.490;14.376;2023-06-10T13:25:02;13.25;13.25;7.75
65556;PMS3003;52200;53.490;14.376;2023-06-10T13:27:28;13.20;12.00;6.60
65556;PMS3003;52200;53.490;14.376;2023-06-10T13:29:54;12.00;11.00;6.00
65556;PMS3003;52200;53.490;14.376;2023-06-10T13:32:19;14.00;13.25;7.00
65556;PMS3003;52200;53.490;14.376;2023-06-10T13:34:45;13.00;12.00;7.00
65556;PMS3003;52200;53.490;14.376;2023-06-10T13:37:10;10.75;10.75;6.00
65556;PMS3003;52200;53.490;14.376;2023-06-10T13:39:37;13.00;13.00;6.80
65556;PMS3003;52200;53.490;14.376;2023-06-10T13:42:03;14.25;13.00;6.00
65556;PMS3003;52200;53.490;14.376;2023-06-10T13:44:29;13.50;13.00;7.00
65556;PMS3003;52200;53.490;14.376;2023-06-10T13:46:58;13.40;12.00;6.00
65556;PMS3003;52200;53.490;14.376;2023-06-10T13:49:23;13.75;12.25;7.00
65556;PMS3003;52200;53.490;14.376;2023-06-10T13:51:49;12.75;12.25;6.00
65556;PMS3003;52200;53.490;14.376;2023-06-10T13:54:14;14.00;13.00;6.50
65556;PMS3003;52200;53.490;14.376;2023-06-10T13:56:40;12.00;12.00;6.60
65556;PMS3003;52200;53.490;14.376;2023-06-10T13:59:06;12.75;12.00;6.50
65556;PMS3003;52200;53.490;14.376;2023-06-10T14:01:31;13.75;13.00;7.75
65556;PMS3003;52200;53.490;14.376;2023-06-10T14:03:56;12.00;11.00;6.00
65556;PMS3003;52200;53.490;14.376;2023-06-10T14:06:22;13.00;13.00;7.00